sensor_id;sensor_type;location;lat;lon;timestamp;pressure;altitude;pressure_sealevel;temperature
41940;BMP180;23057;48.554;14.454;2023-11-21T00:01:47;93174.00;;;11.30
41940;BMP180;23057;48.554;14.454;2023-11-21T00:04:18;93178.00;;;11.20
41940;BMP180;23057;48.554;14.454;2023-11-21T00:06:49;93174.00;;;11.20
41940;BMP180;23057;48.554;14.454;2023-11-21T00:09:20;93170.00;;;11.20
41940;BMP180;23057;48.554;14.454;2023-11-21T00:11:50;93169.00;;;11.20
41940;BMP180;23057;48.554;14.454;2023-11-21T00:14:21;93171.00;;;11.20
41940;BMP180;23057;48.554;14.454;2023-11-21T00:16:52;93163.00;;;11.20
41940;BMP180;23057;48.554;14.454;2023-11-21T00:19:23;93159.00;;;11.30
41940;BMP180;23057;48.554;14.454;2023-11-21T00:21:53;93165.00;;;11.30
41940;BMP180;23057;48.554;14.454;2023-11-21T00:24:25;93156.00;;;11.30
41940;BMP180;23057;48.554;14.454;2023-11-21T00:26:56;93145.00;;;11.40
41940;BMP180;23057;48.554;14.454;2023-11-21T00:29:27;93147.00;;;11.40
41940;BMP180;23057;48.554;14.454;2023-11-21T00:31:57;93141.00;;;11.40
41940;BMP180;23057;48.554;14.454;2023-11-21T00:34:28;93140.00;;;11.50
41940;BMP180;23057;48.554;14.454;2023-11-21T00:37:00;93141.00;;;11.50
41940;BMP180;23057;48.554;14.454;2023-11-21T00:39:31;93140.00;;;11.50
41940;BMP180;23057;48.554;14.454;2023-11-21T00:42:04;93133.00;;;11.50
41940;BMP180;23057;48.554;14.454;2023-11-21T00:44:38;93141.00;;;11.50
41940;BMP180;23057;48.554;14.454;2023-11-21T00:47:09;93144.00;;;11.50
41940;BMP180;23057;48.554;14.454;2023-11-21T00:49:40;93141.00;;;11.50
41940;BMP180;23057;48.554;14.454;2023-11-21T00:52:11;93153.00;;;11.50
41940;BMP180;23057;48.554;14.454;2023-11-21T00:54:42;93137.00;;;11.40
41940;BMP180;23057;48.554;14.454;2023-11-21T00:57:14;93133.00;;;11.40
41940;BMP180;23057;48.554;14.454;2023-11-21T00:59:44;93139.00;;;11.40
41940;BMP180;23057;48.554;14.454;2023-11-21T01:02:15;93141.00;;;11.30
41940;BMP180;23057;48.554;14.454;2023-11-21T01:04:46;93133.00;;;11.30
41940;BMP180;23057;48.554;14.454;2023-11-21T01:07:18;93135.00;;;11.40
41940;BMP180;23057;48.554;14.454;2023-11-21T01:09:50;93133.00;;;11.30
41940;BMP180;23057;48.554;14.454;2023-11-21T01:12:21;93138.00;;;11.40
41940;BMP180;23057;48.554;14.454;2023-11-21T01:14:52;93136.00;;;11.40
41940;BMP180;23057;48.554;14.454;2023-11-21T01:17:23;93144.00;;;11.50
41940;BMP180;23057;48.554;14.454;2023-11-21T01:19:53;93140.00;;;11.50
41940;BMP180;23057;48.554;14.454;2023-11-21T01:22:24;93140.00;;;11.50
41940;BMP180;23057;48.554;14.454;2023-11-21T01:24:56;93139.00;;;11.60
41940;BMP180;23057;48.554;14.454;2023-11-21T01:27:28;93137.00;;;11.50
41940;BMP180;23057;48.554;14.454;2023-11-21T01:29:59;93134.00;;;11.50
41940;BMP180;23057;48.554;14.454;2023-11-21T01:32:29;93133.00;;;11.40
41940;BMP180;23057;48.554;14.454;2023-11-21T01:35:00;93140.00;;;11.40
41940;BMP180;23057;48.554;14.454;2023-11-21T01:37:32;93138.00;;;11.30
41940;BMP180;23057;48.554;14.454;2023-11-21T01:40:04;93138.00;;;11.30
41940;BMP180;23057;48.554;14.454;2023-11-21T01:42:42;93137.00;;;11.40
41940;BMP180;23057;48.554;14.454;2023-11-21T01:45:17;93141.00;;;11.40
41940;BMP180;23057;48.554;14.454;2023-11-21T01:47:48;93137.00;;;11.30
41940;BMP180;23057;48.554;14.454;2023-11-21T01:50:19;93141.00;;;11.30
41940;BMP180;23057;48.554;14.454;2023-11-21T01:52:53;93135.00;;;11.40
41940;BMP180;23057;48.554;14.454;2023-11-21T01:55:24;93134.00;;;11.40
41940;BMP180;23057;48.554;14.454;2023-11-21T01:57:57;93141.00;;;11.40
41940;BMP180;23057;48.554;14.454;2023-11-21T02:00:28;93144.00;;;11.40
41940;BMP180;23057;48.554;14.454;2023-11-21T02:03:01;93139.00;;;11.50
41940;BMP180;23057;48.554;14.454;2023-11-21T02:05:33;93137.00;;;11.50
41940;BMP180;23057;48.554;14.454;2023-11-21T02:08:04;93140.00;;;11.60
41940;BMP180;23057;48.554;14.454;2023-11-21T02:10:35;93136.00;;;11.60
41940;BMP180;23057;48.554;14.454;2023-11-21T02:13:07;93137.00;;;11.60
41940;BMP180;23057;48.554;14.454;2023-11-21T02:15:38;93135.00;;;11.70
41940;BMP180;23057;48.554;14.454;2023-11-21T02:18:09;93123.00;;;11.70
41940;BMP180;23057;48.554;14.454;2023-11-21T02:20:41;93130.00;;;11.80
41940;BMP180;23057;48.554;14.454;2023-11-21T02:23:13;93121.00;;;11.80
41940;BMP180;23057;48.554;14.454;2023-11-21T02:25:45;93126.00;;;11.80
41940;BMP180;23057;48.554;14.454;2023-11-21T02:28:15;93129.00;;;11.80
41940;BMP180;23057;48.554;14.454;2023-11-21T02:30:56;93134.00;;;11.80
41940;BMP180;23057;48.554;14.454;2023-11-21T02:33:28;93129.00;;;11.80
41940;BMP180;23057;48.554;14.454;2023-11-21T02:36:02;93124.00;;;11.70
41940;BMP180;23057;48.554;14.454;2023-11-21T02:38:33;93117.00;;;11.70
41940;BMP180;23057;48.554;14.454;2023-11-21T02:41:04;93121.00;;;11.70
41940;BMP180;23057;48.554;14.454;2023-11-21T02:43:35;93118.00;;;11.80
41940;BMP180;23057;48.554;14.454;2023-11-21T02:46:06;93120.00;;;11.80
41940;BMP180;23057;48.554;14.454;2023-11-21T02:48:37;93115.00;;;11.70
41940;BMP180;23057;48.554;14.454;2023-11-21T02:51:08;93119.00;;;11.70
41940;BMP180;23057;48.554;14.454;2023-11-21T02:53:39;93106.00;;;11.70
41940;BMP180;23057;48.554;14.454;2023-11-21T02:56:09;93106.00;;;11.70
41940;BMP180;23057;48.554;14.454;2023-11-21T02:58:44;93105.00;;;11.70
41940;BMP180;23057;48.554;14.454;2023-11-21T03:01:15;93105.00;;;11.70
41940;BMP180;23057;48.554;14.454;2023-11-21T03:03:45;93111.00;;;11.70
41940;BMP180;23057;48.554;14.454;2023-11-21T03:06:22;93114.00;;;11.70
41940;BMP180;23057;48.554;14.454;2023-11-21T03:08:54;93109.00;;;11.70
41940;BMP180;23057;48.554;14.454;2023-11-21T03:11:25;93110.00;;;11.60
41940;BMP180;23057;48.554;14.454;2023-11-21T03:13:55;93118.00;;;11.60
41940;BMP180;23057;48.554;14.454;2023-11-21T03:16:26;93110.00;;;11.50
41940;BMP180;23057;48.554;14.454;2023-11-21T03:18:57;93109.00;;;11.50
41940;BMP180;23057;48.554;14.454;2023-11-21T03:21:29;93106.00;;;11.50
41940;BMP180;23057;48.554;14.454;2023-11-21T03:23:59;93107.00;;;11.50
41940;BMP180;23057;48.554;14.454;2023-11-21T03:26:30;93104.00;;;11.50
41940;BMP180;23057;48.554;14.454;2023-11-21T03:29:01;93109.00;;;11.40
41940;BMP180;23057;48.554;14.454;2023-11-21T03:31:32;93102.00;;;11.40
41940;BMP180;23057;48.554;14.454;2023-11-21T03:34:03;93109.00;;;11.40
41940;BMP180;23057;48.554;14.454;2023-11-21T03:36:34;93108.00;;;11.40
41940;BMP180;23057;48.554;14.454;2023-11-21T03:39:04;93107.00;;;11.30
41940;BMP180;23057;48.554;14.454;2023-11-21T03:41:35;93103.00;;;11.30
41940;BMP180;23057;48.554;14.454;2023-11-21T03:44:06;93103.00;;;11.20
41940;BMP180;23057;48.554;14.454;2023-11-21T03:46:37;93095.00;;;11.30
41940;BMP180;23057;48.554;14.454;2023-11-21T03:49:08;93091.00;;;11.20
41940;BMP180;23057;48.554;14.454;2023-11-21T03:51:39;93101.00;;;11.20
41940;BMP180;23057;48.554;14.454;2023-11-21T03:54:10;93096.00;;;11.20
41940;BMP180;23057;48.554;14.454;2023-11-21T03:56:41;93089.00;;;11.10
41940;BMP180;23057;48.554;14.454;2023-11-21T03:59:12;93090.00;;;11.10
41940;BMP180;23057;48.554;14.454;2023-11-21T04:01:43;93090.00;;;11.10
41940;BMP180;23057;48.554;14.454;2023-11-21T04:04:13;93094.00;;;11.10
41940;BMP180;23057;48.554;14.454;2023-11-21T04:06:44;93094.00;;;11.10
41940;BMP180;23057;48.554;14.454;2023-11-21T04:09:15;93092.00;;;11.10
41940;BMP180;23057;48.554;14.454;2023-11-21T04:11:46;93082.00;;;11.10
41940;BMP180;23057;48.554;14.454;2023-11-21T04:14:18;93093.00;;;11.10
41940;BMP180;23057;48.554;14.454;2023-11-21T04:16:49;93091.00;;;11.00
41940;BMP180;23057;48.554;14.454;2023-11-21T04:19:20;93082.00;;;10.90
41940;BMP180;23057;48.554;14.454;2023-11-21T04:21:51;93075.00;;;10.80
41940;BMP180;23057;48.554;14.454;2023-11-21T04:24:21;93082.00;;;10.70
41940;BMP180;23057;48.554;14.454;2023-11-21T04:26:52;93078.00;;;10.60
41940;BMP180;23057;48.554;14.454;2023-11-21T04:29:24;93078.00;;;10.50
41940;BMP180;23057;48.554;14.454;2023-11-21T04:31:54;93069.00;;;10.50
41940;BMP180;23057;48.554;14.454;2023-11-21T04:34:25;93070.00;;;10.50
41940;BMP180;23057;48.554;14.454;2023-11-21T04:36:56;93072.00;;;10.50
41940;BMP180;23057;48.554;14.454;2023-11-21T04:39:27;93079.00;;;10.60
41940;BMP180;23057;48.554;14.454;2023-11-21T04:41:58;93079.00;;;10.60
41940;BMP180;23057;48.554;14.454;2023-11-21T04:44:29;93077.00;;;10.60
41940;BMP180;23057;48.554;14.454;2023-11-21T04:47:00;93078.00;;;10.60
41940;BMP180;23057;48.554;14.454;2023-11-21T04:49:30;93077.00;;;10.60
41940;BMP180;23057;48.554;14.454;2023-11-21T04:52:01;93075.00;;;10.50
41940;BMP180;23057;48.554;14.454;2023-11-21T04:54:33;93078.00;;;10.60
41940;BMP180;23057;48.554;14.454;2023-11-21T04:57:04;93088.00;;;10.50
41940;BMP180;23057;48.554;14.454;2023-11-21T04:59:37;93083.00;;;10.60
41940;BMP180;23057;48.554;14.454;2023-11-21T05:02:08;93093.00;;;10.60
41940;BMP180;23057;48.554;14.454;2023-11-21T05:04:39;93095.00;;;10.60
41940;BMP180;23057;48.554;14.454;2023-11-21T05:07:10;93094.00;;;10.60
41940;BMP180;23057;48.554;14.454;2023-11-21T05:09:44;93095.00;;;10.50
41940;BMP180;23057;48.554;14.454;2023-11-21T05:12:16;93089.00;;;10.50
41940;BMP180;23057;48.554;14.454;2023-11-21T05:14:47;93096.00;;;10.50
41940;BMP180;23057;48.554;14.454;2023-11-21T05:17:19;93084.00;;;10.50
41940;BMP180;23057;48.554;14.454;2023-11-21T05:19:50;93097.00;;;10.50
41940;BMP180;23057;48.554;14.454;2023-11-21T05:22:20;93103.00;;;10.50
41940;BMP180;23057;48.554;14.454;2023-11-21T05:24:51;93103.00;;;10.60
41940;BMP180;23057;48.554;14.454;2023-11-21T05:27:22;93101.00;;;10.60
41940;BMP180;23057;48.554;14.454;2023-11-21T05:29:53;93102.00;;;10.70
41940;BMP180;23057;48.554;14.454;2023-11-21T05:32:25;93105.00;;;10.70
41940;BMP180;23057;48.554;14.454;2023-11-21T05:34:56;93103.00;;;10.60
41940;BMP180;23057;48.554;14.454;2023-11-21T05:37:27;93092.00;;;10.60
41940;BMP180;23057;48.554;14.454;2023-11-21T05:39:57;93086.00;;;10.60
41940;BMP180;23057;48.554;14.454;2023-11-21T05:42:28;93097.00;;;10.60
41940;BMP180;23057;48.554;14.454;2023-11-21T05:45:01;93089.00;;;10.60
41940;BMP180;23057;48.554;14.454;2023-11-21T05:47:43;93100.00;;;10.60
41940;BMP180;23057;48.554;14.454;2023-11-21T05:50:17;93099.00;;;10.60
41940;BMP180;23057;48.554;14.454;2023-11-21T05:52:48;93107.00;;;10.60
41940;BMP180;23057;48.554;14.454;2023-11-21T05:55:22;93102.00;;;10.60
41940;BMP180;23057;48.554;14.454;2023-11-21T05:57:56;93098.00;;;10.60
41940;BMP180;23057;48.554;14.454;2023-11-21T06:00:26;93113.00;;;10.60
41940;BMP180;23057;48.554;14.454;2023-11-21T06:02:57;93118.00;;;10.60
41940;BMP180;23057;48.554;14.454;2023-11-21T06:05:28;93117.00;;;10.60
41940;BMP180;23057;48.554;14.454;2023-11-21T06:08:02;93120.00;;;10.60
41940;BMP180;23057;48.554;14.454;2023-11-21T06:10:33;93123.00;;;10.60
41940;BMP180;23057;48.554;14.454;2023-11-21T06:13:04;93116.00;;;10.70
41940;BMP180;23057;48.554;14.454;2023-11-21T06:15:35;93125.00;;;10.70
41940;BMP180;23057;48.554;14.454;2023-11-21T06:18:06;93118.00;;;10.80
41940;BMP180;23057;48.554;14.454;2023-11-21T06:20:40;93127.00;;;10.80
41940;BMP180;23057;48.554;14.454;2023-11-21T06:23:11;93127.00;;;10.80
41940;BMP180;23057;48.554;14.454;2023-11-21T06:25:42;93129.00;;;10.70
41940;BMP180;23057;48.554;14.454;2023-11-21T06:28:12;93119.00;;;10.70
41940;BMP180;23057;48.554;14.454;2023-11-21T06:30:46;93129.00;;;10.70
41940;BMP180;23057;48.554;14.454;2023-11-21T06:33:16;93135.00;;;10.70
41940;BMP180;23057;48.554;14.454;2023-11-21T06:35:47;93134.00;;;10.80
41940;BMP180;23057;48.554;14.454;2023-11-21T06:38:18;93143.00;;;10.80
41940;BMP180;23057;48.554;14.454;2023-11-21T06:40:50;93138.00;;;10.90
41940;BMP180;23057;48.554;14.454;2023-11-21T06:43:21;93138.00;;;11.00
41940;BMP180;23057;48.554;14.454;2023-11-21T06:45:52;93145.00;;;11.00
41940;BMP180;23057;48.554;14.454;2023-11-21T06:48:23;93144.00;;;11.00
41940;BMP180;23057;48.554;14.454;2023-11-21T06:50:54;93144.00;;;11.10
41940;BMP180;23057;48.554;14.454;2023-11-21T06:53:25;93147.00;;;11.10
41940;BMP180;23057;48.554;14.454;2023-11-21T06:55:55;93144.00;;;11.10
41940;BMP180;23057;48.554;14.454;2023-11-21T06:58:26;93153.00;;;11.20
41940;BMP180;23057;48.554;14.454;2023-11-21T07:00:57;93153.00;;;11.20
41940;BMP180;23057;48.554;14.454;2023-11-21T07:03:28;93157.00;;;11.20
41940;BMP180;23057;48.554;14.454;2023-11-21T07:05:59;93163.00;;;11.30
41940;BMP180;23057;48.554;14.454;2023-11-21T07:08:30;93166.00;;;11.30
41940;BMP180;23057;48.554;14.454;2023-11-21T07:11:01;93159.00;;;11.30
41940;BMP180;23057;48.554;14.454;2023-11-21T07:13:33;93170.00;;;11.30
41940;BMP180;23057;48.554;14.454;2023-11-21T07:16:04;93175.00;;;11.30
41940;BMP180;23057;48.554;14.454;2023-11-21T07:18:35;93177.00;;;11.30
41940;BMP180;23057;48.554;14.454;2023-11-21T07:21:06;93177.00;;;11.30
41940;BMP180;23057;48.554;14.454;2023-11-21T07:23:39;93177.00;;;11.30
41940;BMP180;23057;48.554;14.454;2023-11-21T07:26:09;93184.00;;;11.40
41940;BMP180;23057;48.554;14.454;2023-11-21T07:28:41;93185.00;;;11.50
41940;BMP180;23057;48.554;14.454;2023-11-21T07:31:12;93196.00;;;11.50
41940;BMP180;23057;48.554;14.454;2023-11-21T07:33:43;93194.00;;;11.50
41940;BMP180;23057;48.554;14.454;2023-11-21T07:36:14;93206.00;;;11.50
41940;BMP180;23057;48.554;14.454;2023-11-21T07:38:46;93205.00;;;11.50
41940;BMP180;23057;48.554;14.454;2023-11-21T07:41:18;93205.00;;;11.60
41940;BMP180;23057;48.554;14.454;2023-11-21T07:43:49;93210.00;;;11.60
41940;BMP180;23057;48.554;14.454;2023-11-21T07:46:20;93212.00;;;11.70
41940;BMP180;23057;48.554;14.454;2023-11-21T07:48:51;93207.00;;;11.80
41940;BMP180;23057;48.554;14.454;2023-11-21T07:51:22;93208.00;;;11.80
41940;BMP180;23057;48.554;14.454;2023-11-21T07:53:53;93205.00;;;11.90
41940;BMP180;23057;48.554;14.454;2023-11-21T07:56:24;93213.00;;;11.90
41940;BMP180;23057;48.554;14.454;2023-11-21T07:58:55;93203.00;;;12.00
41940;BMP180;23057;48.554;14.454;2023-11-21T08:01:26;93210.00;;;12.00
41940;BMP180;23057;48.554;14.454;2023-11-21T08:03:58;93208.00;;;12.10
41940;BMP180;23057;48.554;14.454;2023-11-21T08:06:33;93208.00;;;12.10
41940;BMP180;23057;48.554;14.454;2023-11-21T08:09:04;93210.00;;;12.20
41940;BMP180;23057;48.554;14.454;2023-11-21T08:11:35;93220.00;;;12.20
41940;BMP180;23057;48.554;14.454;2023-11-21T08:14:06;93210.00;;;12.20
41940;BMP180;23057;48.554;14.454;2023-11-21T08:16:37;93212.00;;;12.30
41940;BMP180;23057;48.554;14.454;2023-11-21T08:19:08;93212.00;;;12.30
41940;BMP180;23057;48.554;14.454;2023-11-21T08:21:40;93210.00;;;12.30
41940;BMP180;23057;48.554;14.454;2023-11-21T08:24:10;93219.00;;;12.20
41940;BMP180;23057;48.554;14.454;2023-11-21T08:26:41;93219.00;;;12.20
41940;BMP180;23057;48.554;14.454;2023-11-21T08:29:12;93221.00;;;12.20
41940;BMP180;23057;48.554;14.454;2023-11-21T08:31:44;93219.00;;;12.20
41940;BMP180;23057;48.554;14.454;2023-11-21T08:34:17;93223.00;;;12.30
41940;BMP180;23057;48.554;14.454;2023-11-21T08:36:48;93214.00;;;12.40
41940;BMP180;23057;48.554;14.454;2023-11-21T08:39:22;93214.00;;;12.40
41940;BMP180;23057;48.554;14.454;2023-11-21T08:41:54;93222.00;;;12.50
41940;BMP180;23057;48.554;14.454;2023-11-21T08:44:25;93220.00;;;12.50
41940;BMP180;23057;48.554;14.454;2023-11-21T08:46:56;93211.00;;;12.50
41940;BMP180;23057;48.554;14.454;2023-11-21T08:49:26;93217.00;;;12.50
41940;BMP180;23057;48.554;14.454;2023-11-21T08:51:59;93213.00;;;12.40
41940;BMP180;23057;48.554;14.454;2023-11-21T08:54:31;93212.00;;;12.40
41940;BMP180;23057;48.554;14.454;2023-11-21T08:57:02;93213.00;;;12.40
41940;BMP180;23057;48.554;14.454;2023-11-21T08:59:33;93216.00;;;12.40
41940;BMP180;23057;48.554;14.454;2023-11-21T09:02:04;93224.00;;;12.50
41940;BMP180;23057;48.554;14.454;2023-11-21T09:04:35;93220.00;;;12.50
41940;BMP180;23057;48.554;14.454;2023-11-21T09:07:06;93229.00;;;12.50
41940;BMP180;23057;48.554;14.454;2023-11-21T09:09:37;93225.00;;;12.60
41940;BMP180;23057;48.554;14.454;2023-11-21T09:12:07;93216.00;;;12.60
41940;BMP180;23057;48.554;14.454;2023-11-21T09:14:43;93223.00;;;12.70
41940;BMP180;23057;48.554;14.454;2023-11-21T09:17:14;93226.00;;;12.80
41940;BMP180;23057;48.554;14.454;2023-11-21T09:19:45;93224.00;;;12.80
41940;BMP180;23057;48.554;14.454;2023-11-21T09:22:20;93215.00;;;13.00
41940;BMP180;23057;48.554;14.454;2023-11-21T09:24:51;93231.00;;;13.10
41940;BMP180;23057;48.554;14.454;2023-11-21T09:27:22;93215.00;;;13.10
41940;BMP180;23057;48.554;14.454;2023-11-21T09:29:53;93223.00;;;13.20
41940;BMP180;23057;48.554;14.454;2023-11-21T09:32:24;93224.00;;;13.30
41940;BMP180;23057;48.554;14.454;2023-11-21T09:34:55;93225.00;;;13.30
41940;BMP180;23057;48.554;14.454;2023-11-21T09:37:28;93224.00;;;13.40
41940;BMP180;23057;48.554;14.454;2023-11-21T09:39:59;93218.00;;;13.50
41940;BMP180;23057;48.554;14.454;2023-11-21T09:42:36;93221.00;;;13.60
41940;BMP180;23057;48.554;14.454;2023-11-21T09:45:27;93220.00;;;13.60
41940;BMP180;23057;48.554;14.454;2023-11-21T09:47:59;93217.00;;;13.70
41940;BMP180;23057;48.554;14.454;2023-11-21T09:50:32;93223.00;;;13.70
41940;BMP180;23057;48.554;14.454;2023-11-21T09:53:22;93219.00;;;13.80
41940;BMP180;23057;48.554;14.454;2023-11-21T09:55:55;93221.00;;;13.80
41940;BMP180;23057;48.554;14.454;2023-11-21T09:58:27;93215.00;;;13.90
41940;BMP180;23057;48.554;14.454;2023-11-21T10:01:01;93218.00;;;14.00
41940;BMP180;23057;48.554;14.454;2023-11-21T10:03:36;93223.00;;;14.00
41940;BMP180;23057;48.554;14.454;2023-11-21T10:06:12;93213.00;;;14.00
41940;BMP180;23057;48.554;14.454;2023-11-21T10:08:46;93215.00;;;14.00
41940;BMP180;23057;48.554;14.454;2023-11-21T10:11:19;93221.00;;;14.00
41940;BMP180;23057;48.554;14.454;2023-11-21T10:13:55;93211.00;;;14.00
41940;BMP180;23057;48.554;14.454;2023-11-21T10:16:29;93212.00;;;14.00
41940;BMP180;23057;48.554;14.454;2023-11-21T10:19:00;93209.00;;;14.00
41940;BMP180;23057;48.554;14.454;2023-11-21T10:21:32;93200.00;;;14.00
41940;BMP180;23057;48.554;14.454;2023-11-21T10:24:04;93205.00;;;14.00
41940;BMP180;23057;48.554;14.454;2023-11-21T10:26:36;93207.00;;;14.00
41940;BMP180;23057;48.554;14.454;2023-11-21T10:29:07;93201.00;;;14.00
41940;BMP180;23057;48.554;14.454;2023-11-21T10:31:38;93203.00;;;14.10
41940;BMP180;23057;48.554;14.454;2023-11-21T10:34:19;93184.00;;;14.10
41940;BMP180;23057;48.554;14.454;2023-11-21T10:36:51;93201.00;;;14.10
41940;BMP180;23057;48.554;14.454;2023-11-21T10:39:22;93199.00;;;14.00
41940;BMP180;23057;48.554;14.454;2023-11-21T10:41:55;93200.00;;;14.00
41940;BMP180;23057;48.554;14.454;2023-11-21T10:44:26;93210.00;;;14.00
41940;BMP180;23057;48.554;14.454;2023-11-21T10:46:57;93206.00;;;14.00
41940;BMP180;23057;48.554;14.454;2023-11-21T10:49:30;93211.00;;;14.10
41940;BMP180;23057;48.554;14.454;2023-11-21T10:52:00;93208.00;;;14.10
41940;BMP180;23057;48.554;14.454;2023-11-21T10:54:31;93199.00;;;14.10
41940;BMP180;23057;48.554;14.454;2023-11-21T10:57:04;93215.00;;;14.10
41940;BMP180;23057;48.554;14.454;2023-11-21T10:59:36;93212.00;;;14.20
41940;BMP180;23057;48.554;14.454;2023-11-21T11:02:22;93211.00;;;14.40
41940;BMP180;23057;48.554;14.454;2023-11-21T11:04:59;93205.00;;;14.40
41940;BMP180;23057;48.554;14.454;2023-11-21T11:07:33;93216.00;;;14.30
41940;BMP180;23057;48.554;14.454;2023-11-21T11:10:07;93209.00;;;14.30
41940;BMP180;23057;48.554;14.454;2023-11-21T11:12:47;93212.00;;;14.30
41940;BMP180;23057;48.554;14.454;2023-11-21T11:15:19;93207.00;;;14.20
41940;BMP180;23057;48.554;14.454;2023-11-21T11:17:50;93213.00;;;14.20
41940;BMP180;23057;48.554;14.454;2023-11-21T11:20:35;93203.00;;;14.20
41940;BMP180;23057;48.554;14.454;2023-11-21T11:27:11;93211.00;;;14.20
41940;BMP180;23057;48.554;14.454;2023-11-21T11:30:22;93202.00;;;14.30
41940;BMP180;23057;48.554;14.454;2023-11-21T11:36:37;93198.00;;;14.30
41940;BMP180;23057;48.554;14.454;2023-11-21T11:39:45;93192.00;;;14.30
41940;BMP180;23057;48.554;14.454;2023-11-21T11:42:17;93198.00;;;14.30
41940;BMP180;23057;48.554;14.454;2023-11-21T11:44:51;93198.00;;;14.40
41940;BMP180;23057;48.554;14.454;2023-11-21T11:47:31;93203.00;;;14.50
41940;BMP180;23057;48.554;14.454;2023-11-21T11:50:12;93194.00;;;14.50
41940;BMP180;23057;48.554;14.454;2023-11-21T11:52:50;93189.00;;;14.50
41940;BMP180;23057;48.554;14.454;2023-11-21T11:55:24;93206.00;;;14.50
41940;BMP180;23057;48.554;14.454;2023-11-21T11:57:55;93197.00;;;14.50
41940;BMP180;23057;48.554;14.454;2023-11-21T12:03:02;93205.00;;;14.50
41940;BMP180;23057;48.554;14.454;2023-11-21T12:05:35;93206.00;;;14.50
41940;BMP180;23057;48.554;14.454;2023-11-21T12:08:09;93203.00;;;14.40
41940;BMP180;23057;48.554;14.454;2023-11-21T12:10:42;93204.00;;;14.40
41940;BMP180;23057;48.554;14.454;2023-11-21T12:13:15;93201.00;;;14.40
41940;BMP180;23057;48.554;14.454;2023-11-21T12:15:47;93205.00;;;14.40
41940;BMP180;23057;48.554;14.454;2023-11-21T12:18:18;93192.00;;;14.40
41940;BMP180;23057;48.554;14.454;2023-11-21T12:20:49;93203.00;;;14.40
41940;BMP180;23057;48.554;14.454;2023-11-21T12:23:21;93207.00;;;14.40
41940;BMP180;23057;48.554;14.454;2023-11-21T12:25:52;93208.00;;;14.50
41940;BMP180;23057;48.554;14.454;2023-11-21T12:28:24;93212.00;;;14.50
41940;BMP180;23057;48.554;14.454;2023-11-21T12:30:54;93210.00;;;14.50
41940;BMP180;23057;48.554;14.454;2023-11-21T12:33:27;93203.00;;;14.50
41940;BMP180;23057;48.554;14.454;2023-11-21T12:35:59;93209.00;;;14.50
41940;BMP180;23057;48.554;14.454;2023-11-21T12:38:36;93221.00;;;14.60
41940;BMP180;23057;48.554;14.454;2023-11-21T12:41:07;93213.00;;;14.60
41940;BMP180;23057;48.554;14.454;2023-11-21T12:43:40;93212.00;;;14.70
41940;BMP180;23057;48.554;14.454;2023-11-21T12:46:11;93210.00;;;14.70
41940;BMP180;23057;48.554;14.454;2023-11-21T12:48:44;93211.00;;;14.70
41940;BMP180;23057;48.554;14.454;2023-11-21T12:51:18;93196.00;;;14.80
41940;BMP180;23057;48.554;14.454;2023-11-21T12:53:49;93201.00;;;14.90
41940;BMP180;23057;48.554;14.454;2023-11-21T12:56:22;93207.00;;;14.90
41940;BMP180;23057;48.554;14.454;2023-11-21T12:58:56;93205.00;;;14.80
41940;BMP180;23057;48.554;14.454;2023-11-21T13:01:29;93208.00;;;14.80
41940;BMP180;23057;48.554;14.454;2023-11-21T13:04:00;93207.00;;;14.70
41940;BMP180;23057;48.554;14.454;2023-11-21T13:06:32;93202.00;;;14.70
41940;BMP180;23057;48.554;14.454;2023-11-21T13:09:09;93209.00;;;14.70
41940;BMP180;23057;48.554;14.454;2023-11-21T13:11:41;93215.00;;;14.60
41940;BMP180;23057;48.554;14.454;2023-11-21T13:14:12;93215.00;;;14.60
41940;BMP180;23057;48.554;14.454;2023-11-21T13:16:42;93211.00;;;14.60
41940;BMP180;23057;48.554;14.454;2023-11-21T13:19:16;93215.00;;;14.50
41940;BMP180;23057;48.554;14.454;2023-11-21T13:21:47;93213.00;;;14.50
41940;BMP180;23057;48.554;14.454;2023-11-21T13:24:18;93217.00;;;14.40
41940;BMP180;23057;48.554;14.454;2023-11-21T13:26:49;93220.00;;;14.40
41940;BMP180;23057;48.554;14.454;2023-11-21T13:29:20;93218.00;;;14.30
41940;BMP180;23057;48.554;14.454;2023-11-21T13:31:51;93216.00;;;14.20
41940;BMP180;23057;48.554;14.454;2023-11-21T13:34:23;93225.00;;;14.20
41940;BMP180;23057;48.554;14.454;2023-11-21T13:36:58;93207.00;;;14.10
41940;BMP180;23057;48.554;14.454;2023-11-21T13:39:31;93209.00;;;14.10
41940;BMP180;23057;48.554;14.454;2023-11-21T13:42:03;93225.00;;;14.10
41940;BMP180;23057;48.554;14.454;2023-11-21T13:44:34;93230.00;;;14.10
41940;BMP180;23057;48.554;14.454;2023-11-21T13:47:08;93224.00;;;14.10
41940;BMP180;23057;48.554;14.454;2023-11-21T13:49:39;93237.00;;;14.00
41940;BMP180;23057;48.554;14.454;2023-11-21T13:52:12;93244.00;;;14.00
41940;BMP180;23057;48.554;14.454;2023-11-21T13:54:46;93248.00;;;14.00
41940;BMP180;23057;48.554;14.454;2023-11-21T13:57:18;93240.00;;;14.00
41940;BMP180;23057;48.554;14.454;2023-11-21T13:59:50;93247.00;;;14.00
41940;BMP180;23057;48.554;14.454;2023-11-21T14:02:21;93247.00;;;13.90
41940;BMP180;23057;48.554;14.454;2023-11-21T14:05:02;93253.00;;;13.90
41940;BMP180;23057;48.554;14.454;2023-11-21T14:07:39;93244.00;;;13.90
41940;BMP180;23057;48.554;14.454;2023-11-21T14:10:18;93252.00;;;13.80
41940;BMP180;23057;48.554;14.454;2023-11-21T14:12:52;93247.00;;;13.90
41940;BMP180;23057;48.554;14.454;2023-11-21T14:15:23;93253.00;;;13.90
41940;BMP180;23057;48.554;14.454;2023-11-21T14:17:54;93258.00;;;13.90
41940;BMP180;23057;48.554;14.454;2023-11-21T14:20:25;93257.00;;;14.00
41940;BMP180;23057;48.554;14.454;2023-11-21T14:22:56;93236.00;;;14.00
41940;BMP180;23057;48.554;14.454;2023-11-21T14:25:27;93265.00;;;14.00
41940;BMP180;23057;48.554;14.454;2023-11-21T14:27:59;93252.00;;;14.00
41940;BMP180;23057;48.554;14.454;2023-11-21T14:30:30;93261.00;;;14.00
41940;BMP180;23057;48.554;14.454;2023-11-21T14:33:06;93267.00;;;14.10
41940;BMP180;23057;48.554;14.454;2023-11-21T14:35:38;93258.00;;;14.20